This is the latest recevied weather packets stored in our database for station/object 9W2CHF-3. If no packets are shown the sender has not sent any weather packets the latest 10 day(s).
| Time | Temp. | Humidity | Pressure | Rain* | Wind** | Luminosity | Snow |
|---|---|---|---|---|---|---|---|
| 1777826823 | 29.44° C | 96% | 1010.9 hPa | - | - | - | - |
| 1777825622 | 28.89° C | 96% | 1010.8 hPa | - | - | - | - |
| 1777824422 | 30.56° C | 89% | 1010.9 hPa | - | - | - | - |
| 1777823222 | 30.56° C | 88% | 1011 hPa | - | - | - | - |
| 1777822022 | 32.22° C | 80% | 1011 hPa | - | - | - | - |
| 1777820822 | 32.22° C | 83% | 1011 hPa | - | - | - | - |
| 1777819622 | 29.44° C | 97% | 1010.7 hPa | - | - | - | - |
| 1777818422 | 33.89° C | 71% | 1010.4 hPa | - | - | - | - |
| 1777817222 | 32.78° C | 79% | 1010.1 hPa | - | - | - | - |
| 1777816022 | 30.56° C | 91% | 1009.9 hPa | - | - | - | - |
| 1777814822 | 30.56° C | 93% | 1010 hPa | - | - | - | - |
| 1777813621 | 31.11° C | 92% | 1010.2 hPa | - | - | - | - |
| 1777812421 | 31.11° C | 93% | 1010.1 hPa | - | - | - | - |
| 1777811221 | 31.11° C | 91% | 1010 hPa | - | - | - | - |
| 1777810021 | 30.56° C | 90% | 1009.8 hPa | - | - | - | - |
| 1777808821 | 31.67° C | 81% | 1009.4 hPa | - | - | - | - |
| 1777807621 | 31.11° C | 83% | 1009 hPa | - | - | - | - |
| 1777806421 | 32.78° C | 72% | 1009 hPa | - | - | - | - |
| 1777805221 | 36.67° C | 63% | 1008.6 hPa | - | - | - | - |
| 1777804021 | 33.89° C | 74% | 1008.3 hPa | - | - | - | - |
| 1777802821 | 32.78° C | 78% | 1008.3 hPa | - | - | - | - |
| 1777801621 | 32.78° C | 76% | 1008.4 hPa | - | - | - | - |
| 1777800420 | 32.78° C | 75% | 1008.1 hPa | - | - | - | - |
| 1777799220 | 32.78° C | 74% | 1008.1 hPa | - | - | - | - |
| 1777798020 | 32.22° C | 77% | 1007.9 hPa | - | - | - | - |
* Rain since midnight (hover to see other rain measurements)
** Current wind speed in m/s (hover to see current wind gust speed)